sensor_id;sensor_type;location;lat;lon;timestamp;temperature;humidity
7218;DHT22;3650;53.580;10.094;2022-10-15T00:01:07;15.80;99.90
7218;DHT22;3650;53.580;10.094;2022-10-15T00:03:35;15.90;99.90
7218;DHT22;3650;53.580;10.094;2022-10-15T00:06:07;15.90;99.90
7218;DHT22;3650;53.580;10.094;2022-10-15T00:08:34;15.90;99.90
7218;DHT22;3650;53.580;10.094;2022-10-15T00:11:03;15.90;99.90
7218;DHT22;3650;53.580;10.094;2022-10-15T00:13:30;15.90;99.90
7218;DHT22;3650;53.580;10.094;2022-10-15T00:15:59;15.90;99.90
7218;DHT22;3650;53.580;10.094;2022-10-15T00:18:25;15.90;99.90
7218;DHT22;3650;53.580;10.094;2022-10-15T00:20:52;15.90;99.90
7218;DHT22;3650;53.580;10.094;2022-10-15T00:23:19;15.90;99.90
7218;DHT22;3650;53.580;10.094;2022-10-15T00:25:46;16.00;99.90
7218;DHT22;3650;53.580;10.094;2022-10-15T00:28:13;16.00;99.90
7218;DHT22;3650;53.580;10.094;2022-10-15T00:30:39;16.00;99.90
7218;DHT22;3650;53.580;10.094;2022-10-15T00:33:07;16.00;99.90
7218;DHT22;3650;53.580;10.094;2022-10-15T00:35:34;15.90;99.90
7218;DHT22;3650;53.580;10.094;2022-10-15T00:38:01;16.00;99.90
7218;DHT22;3650;53.580;10.094;2022-10-15T00:40:28;16.00;99.90
7218;DHT22;3650;53.580;10.094;2022-10-15T00:42:55;16.00;99.90
7218;DHT22;3650;53.580;10.094;2022-10-15T00:45:22;16.00;99.90
7218;DHT22;3650;53.580;10.094;2022-10-15T00:47:49;16.00;99.90
7218;DHT22;3650;53.580;10.094;2022-10-15T00:50:20;16.00;99.90
7218;DHT22;3650;53.580;10.094;2022-10-15T00:52:57;16.00;99.90
7218;DHT22;3650;53.580;10.094;2022-10-15T00:55:28;16.00;99.90
7218;DHT22;3650;53.580;10.094;2022-10-15T00:57:59;16.00;99.90
7218;DHT22;3650;53.580;10.094;2022-10-15T01:00:26;16.00;99.90
7218;DHT22;3650;53.580;10.094;2022-10-15T01:02:53;15.90;99.90
7218;DHT22;3650;53.580;10.094;2022-10-15T01:05:22;16.00;99.90
7218;DHT22;3650;53.580;10.094;2022-10-15T01:07:50;16.00;99.90
7218;DHT22;3650;53.580;10.094;2022-10-15T01:10:18;16.00;99.90
7218;DHT22;3650;53.580;10.094;2022-10-15T01:12:55;16.10;99.90
7218;DHT22;3650;53.580;10.094;2022-10-15T01:15:26;16.10;99.90
7218;DHT22;3650;53.580;10.094;2022-10-15T01:17:58;16.00;99.90
7218;DHT22;3650;53.580;10.094;2022-10-15T01:20:56;16.00;99.90
7218;DHT22;3650;53.580;10.094;2022-10-15T01:27:03;16.00;99.90
7218;DHT22;3650;53.580;10.094;2022-10-15T01:29:49;16.10;99.90
7218;DHT22;3650;53.580;10.094;2022-10-15T01:32:22;16.10;99.90
7218;DHT22;3650;53.580;10.094;2022-10-15T01:34:53;16.10;99.90
7218;DHT22;3650;53.580;10.094;2022-10-15T01:37:26;16.00;99.90
7218;DHT22;3650;53.580;10.094;2022-10-15T01:40:00;16.00;99.90
7218;DHT22;3650;53.580;10.094;2022-10-15T01:42:33;16.10;99.90
7218;DHT22;3650;53.580;10.094;2022-10-15T01:45:06;16.10;99.90
7218;DHT22;3650;53.580;10.094;2022-10-15T01:47:39;16.10;99.90
7218;DHT22;3650;53.580;10.094;2022-10-15T01:50:10;16.10;99.90
7218;DHT22;3650;53.580;10.094;2022-10-15T01:52:39;16.00;99.90
7218;DHT22;3650;53.580;10.094;2022-10-15T01:55:10;16.00;99.90
7218;DHT22;3650;53.580;10.094;2022-10-15T01:57:40;16.00;99.90
7218;DHT22;3650;53.580;10.094;2022-10-15T02:00:08;16.00;99.90
7218;DHT22;3650;53.580;10.094;2022-10-15T02:02:36;16.00;99.90
7218;DHT22;3650;53.580;10.094;2022-10-15T02:05:04;16.00;99.90
7218;DHT22;3650;53.580;10.094;2022-10-15T02:07:43;16.00;99.90
7218;DHT22;3650;53.580;10.094;2022-10-15T02:10:20;16.00;99.90
7218;DHT22;3650;53.580;10.094;2022-10-15T02:12:59;16.00;99.90
7218;DHT22;3650;53.580;10.094;2022-10-15T02:15:35;16.00;99.90
7218;DHT22;3650;53.580;10.094;2022-10-15T02:18:09;16.00;99.90
7218;DHT22;3650;53.580;10.094;2022-10-15T02:20:43;15.90;99.90
7218;DHT22;3650;53.580;10.094;2022-10-15T02:23:16;15.90;99.90
7218;DHT22;3650;53.580;10.094;2022-10-15T02:25:44;15.90;99.90
7218;DHT22;3650;53.580;10.094;2022-10-15T02:28:14;15.90;99.90
7218;DHT22;3650;53.580;10.094;2022-10-15T02:30:45;15.90;99.90
7218;DHT22;3650;53.580;10.094;2022-10-15T02:33:15;15.90;99.90
7218;DHT22;3650;53.580;10.094;2022-10-15T02:35:44;15.90;99.90
7218;DHT22;3650;53.580;10.094;2022-10-15T02:38:14;15.90;99.90
7218;DHT22;3650;53.580;10.094;2022-10-15T02:40:43;15.90;99.90
7218;DHT22;3650;53.580;10.094;2022-10-15T02:43:12;15.80;99.90
7218;DHT22;3650;53.580;10.094;2022-10-15T02:45:40;15.80;99.90
7218;DHT22;3650;53.580;10.094;2022-10-15T02:48:07;15.80;99.90
7218;DHT22;3650;53.580;10.094;2022-10-15T02:50:35;15.80;99.90
7218;DHT22;3650;53.580;10.094;2022-10-15T02:53:02;15.80;99.90
7218;DHT22;3650;53.580;10.094;2022-10-15T02:55:29;15.80;99.90
7218;DHT22;3650;53.580;10.094;2022-10-15T02:57:56;15.70;99.90
7218;DHT22;3650;53.580;10.094;2022-10-15T03:00:23;15.80;99.90
7218;DHT22;3650;53.580;10.094;2022-10-15T03:02:50;15.80;99.90
7218;DHT22;3650;53.580;10.094;2022-10-15T03:05:17;15.70;99.90
7218;DHT22;3650;53.580;10.094;2022-10-15T03:07:45;15.70;99.90
7218;DHT22;3650;53.580;10.094;2022-10-15T03:10:11;15.70;99.90
7218;DHT22;3650;53.580;10.094;2022-10-15T03:12:38;15.70;99.90
7218;DHT22;3650;53.580;10.094;2022-10-15T03:15:06;15.60;99.90
7218;DHT22;3650;53.580;10.094;2022-10-15T03:17:33;15.60;99.90
7218;DHT22;3650;53.580;10.094;2022-10-15T03:20:00;15.60;99.90
7218;DHT22;3650;53.580;10.094;2022-10-15T03:22:27;15.60;99.90
7218;DHT22;3650;53.580;10.094;2022-10-15T03:24:55;15.50;99.90
7218;DHT22;3650;53.580;10.094;2022-10-15T03:27:23;15.50;99.90
7218;DHT22;3650;53.580;10.094;2022-10-15T03:29:49;15.50;99.90
7218;DHT22;3650;53.580;10.094;2022-10-15T03:32:16;15.50;99.90
7218;DHT22;3650;53.580;10.094;2022-10-15T03:34:43;15.50;99.90
7218;DHT22;3650;53.580;10.094;2022-10-15T03:37:10;15.40;99.90
7218;DHT22;3650;53.580;10.094;2022-10-15T03:39:37;15.40;99.90
7218;DHT22;3650;53.580;10.094;2022-10-15T03:42:05;15.40;99.90
7218;DHT22;3650;53.580;10.094;2022-10-15T03:44:32;15.40;99.90
7218;DHT22;3650;53.580;10.094;2022-10-15T03:46:59;15.40;99.90
7218;DHT22;3650;53.580;10.094;2022-10-15T03:49:26;15.40;99.90
7218;DHT22;3650;53.580;10.094;2022-10-15T03:51:53;15.40;99.60
7218;DHT22;3650;53.580;10.094;2022-10-15T03:54:19;15.30;99.30
7218;DHT22;3650;53.580;10.094;2022-10-15T03:56:46;15.30;99.30
7218;DHT22;3650;53.580;10.094;2022-10-15T03:59:14;15.30;99.30
7218;DHT22;3650;53.580;10.094;2022-10-15T04:01:42;15.30;99.10
7218;DHT22;3650;53.580;10.094;2022-10-15T04:04:10;15.30;99.00
7218;DHT22;3650;53.580;10.094;2022-10-15T04:06:36;15.30;98.90
7218;DHT22;3650;53.580;10.094;2022-10-15T04:09:03;15.30;98.80
7218;DHT22;3650;53.580;10.094;2022-10-15T04:11:30;15.30;98.70
7218;DHT22;3650;53.580;10.094;2022-10-15T04:13:57;15.30;98.50
7218;DHT22;3650;53.580;10.094;2022-10-15T04:16:25;15.20;98.50
7218;DHT22;3650;53.580;10.094;2022-10-15T04:18:52;15.20;98.50
7218;DHT22;3650;53.580;10.094;2022-10-15T04:21:19;15.20;98.50
7218;DHT22;3650;53.580;10.094;2022-10-15T04:23:46;15.20;98.30
7218;DHT22;3650;53.580;10.094;2022-10-15T04:26:13;15.10;98.30
7218;DHT22;3650;53.580;10.094;2022-10-15T04:28:40;15.10;98.60
7218;DHT22;3650;53.580;10.094;2022-10-15T04:31:07;15.10;98.80
7218;DHT22;3650;53.580;10.094;2022-10-15T04:33:35;15.10;98.90
7218;DHT22;3650;53.580;10.094;2022-10-15T04:36:04;15.10;98.90
7218;DHT22;3650;53.580;10.094;2022-10-15T04:38:32;15.10;99.10
7218;DHT22;3650;53.580;10.094;2022-10-15T04:41:00;15.10;99.20
7218;DHT22;3650;53.580;10.094;2022-10-15T04:43:28;15.10;99.40
7218;DHT22;3650;53.580;10.094;2022-10-15T04:45:56;15.10;99.60
7218;DHT22;3650;53.580;10.094;2022-10-15T04:48:23;15.10;99.80
7218;DHT22;3650;53.580;10.094;2022-10-15T04:50:51;15.10;99.80
7218;DHT22;3650;53.580;10.094;2022-10-15T04:53:18;15.10;99.80
7218;DHT22;3650;53.580;10.094;2022-10-15T04:55:45;15.10;99.80
7218;DHT22;3650;53.580;10.094;2022-10-15T04:58:13;15.10;99.80
7218;DHT22;3650;53.580;10.094;2022-10-15T05:00:39;15.10;99.80
7218;DHT22;3650;53.580;10.094;2022-10-15T05:03:06;15.10;99.80
7218;DHT22;3650;53.580;10.094;2022-10-15T05:05:33;15.10;99.80
7218;DHT22;3650;53.580;10.094;2022-10-15T05:08:02;15.10;99.90
7218;DHT22;3650;53.580;10.094;2022-10-15T05:10:29;15.10;99.90
7218;DHT22;3650;53.580;10.094;2022-10-15T05:12:56;15.10;99.90
7218;DHT22;3650;53.580;10.094;2022-10-15T05:15:24;15.10;99.90
7218;DHT22;3650;53.580;10.094;2022-10-15T05:17:51;15.20;99.90
7218;DHT22;3650;53.580;10.094;2022-10-15T05:20:18;15.20;99.80
7218;DHT22;3650;53.580;10.094;2022-10-15T05:22:45;15.20;99.80
7218;DHT22;3650;53.580;10.094;2022-10-15T05:25:13;15.20;99.90
7218;DHT22;3650;53.580;10.094;2022-10-15T05:27:40;15.20;99.80
7218;DHT22;3650;53.580;10.094;2022-10-15T05:30:08;15.20;99.60
7218;DHT22;3650;53.580;10.094;2022-10-15T05:32:35;15.20;99.60
7218;DHT22;3650;53.580;10.094;2022-10-15T05:35:02;15.20;99.50
7218;DHT22;3650;53.580;10.094;2022-10-15T05:37:28;15.20;99.40
7218;DHT22;3650;53.580;10.094;2022-10-15T05:39:55;15.20;99.20
7218;DHT22;3650;53.580;10.094;2022-10-15T05:42:23;15.20;98.90
7218;DHT22;3650;53.580;10.094;2022-10-15T05:44:50;15.20;98.90
7218;DHT22;3650;53.580;10.094;2022-10-15T05:47:17;15.20;98.90
7218;DHT22;3650;53.580;10.094;2022-10-15T05:49:43;15.20;98.70
7218;DHT22;3650;53.580;10.094;2022-10-15T05:52:10;15.20;98.60
7218;DHT22;3650;53.580;10.094;2022-10-15T05:54:37;15.20;98.70
7218;DHT22;3650;53.580;10.094;2022-10-15T05:57:04;15.20;98.60
7218;DHT22;3650;53.580;10.094;2022-10-15T05:59:32;15.20;98.50
7218;DHT22;3650;53.580;10.094;2022-10-15T06:01:59;15.20;98.30
7218;DHT22;3650;53.580;10.094;2022-10-15T06:04:26;15.10;98.00
7218;DHT22;3650;53.580;10.094;2022-10-15T06:06:52;15.20;97.90
7218;DHT22;3650;53.580;10.094;2022-10-15T06:09:19;15.10;97.80
7218;DHT22;3650;53.580;10.094;2022-10-15T06:11:46;15.10;97.90
7218;DHT22;3650;53.580;10.094;2022-10-15T06:14:13;15.10;98.10
7218;DHT22;3650;53.580;10.094;2022-10-15T06:16:41;15.10;98.20
7218;DHT22;3650;53.580;10.094;2022-10-15T06:19:08;15.20;98.30
7218;DHT22;3650;53.580;10.094;2022-10-15T06:21:35;15.20;98.10
7218;DHT22;3650;53.580;10.094;2022-10-15T06:24:02;15.10;98.00
7218;DHT22;3650;53.580;10.094;2022-10-15T06:26:29;15.10;97.70
7218;DHT22;3650;53.580;10.094;2022-10-15T06:28:55;15.10;97.50
7218;DHT22;3650;53.580;10.094;2022-10-15T06:31:23;15.10;97.60
7218;DHT22;3650;53.580;10.094;2022-10-15T06:33:52;15.10;97.60
7218;DHT22;3650;53.580;10.094;2022-10-15T06:36:18;15.20;97.70
7218;DHT22;3650;53.580;10.094;2022-10-15T06:38:46;15.10;97.70
7218;DHT22;3650;53.580;10.094;2022-10-15T06:41:13;15.10;97.60
7218;DHT22;3650;53.580;10.094;2022-10-15T06:43:41;15.10;97.60
7218;DHT22;3650;53.580;10.094;2022-10-15T06:46:09;15.10;97.70
7218;DHT22;3650;53.580;10.094;2022-10-15T06:48:36;15.10;97.70
7218;DHT22;3650;53.580;10.094;2022-10-15T06:51:04;15.10;97.70
7218;DHT22;3650;53.580;10.094;2022-10-15T06:53:31;15.10;97.80
7218;DHT22;3650;53.580;10.094;2022-10-15T06:55:59;15.10;97.90
7218;DHT22;3650;53.580;10.094;2022-10-15T06:58:26;15.10;98.00
7218;DHT22;3650;53.580;10.094;2022-10-15T07:00:58;15.10;97.90
7218;DHT22;3650;53.580;10.094;2022-10-15T07:03:25;15.10;97.80
7218;DHT22;3650;53.580;10.094;2022-10-15T07:05:52;15.10;97.80
7218;DHT22;3650;53.580;10.094;2022-10-15T07:08:20;15.10;97.70
7218;DHT22;3650;53.580;10.094;2022-10-15T07:10:47;15.20;97.30
7218;DHT22;3650;53.580;10.094;2022-10-15T07:13:14;15.20;97.40
7218;DHT22;3650;53.580;10.094;2022-10-15T07:15:41;15.10;97.30
7218;DHT22;3650;53.580;10.094;2022-10-15T07:18:09;15.10;97.50
7218;DHT22;3650;53.580;10.094;2022-10-15T07:20:36;15.20;97.50
7218;DHT22;3650;53.580;10.094;2022-10-15T07:23:03;15.20;97.60
7218;DHT22;3650;53.580;10.094;2022-10-15T07:25:31;15.20;97.80
7218;DHT22;3650;53.580;10.094;2022-10-15T07:28:00;15.20;97.90
7218;DHT22;3650;53.580;10.094;2022-10-15T07:30:27;15.20;98.00
7218;DHT22;3650;53.580;10.094;2022-10-15T07:32:54;15.20;97.80
7218;DHT22;3650;53.580;10.094;2022-10-15T07:35:21;15.20;97.60
7218;DHT22;3650;53.580;10.094;2022-10-15T07:37:48;15.20;97.30
7218;DHT22;3650;53.580;10.094;2022-10-15T07:40:16;15.20;97.20
7218;DHT22;3650;53.580;10.094;2022-10-15T07:42:51;15.20;97.20
7218;DHT22;3650;53.580;10.094;2022-10-15T07:45:18;15.30;97.60
7218;DHT22;3650;53.580;10.094;2022-10-15T07:47:45;15.30;97.30
7218;DHT22;3650;53.580;10.094;2022-10-15T07:50:11;15.30;97.30
7218;DHT22;3650;53.580;10.094;2022-10-15T07:52:38;15.30;97.10
7218;DHT22;3650;53.580;10.094;2022-10-15T07:55:06;15.30;97.20
7218;DHT22;3650;53.580;10.094;2022-10-15T07:57:33;15.30;97.10
7218;DHT22;3650;53.580;10.094;2022-10-15T08:00:02;15.40;96.90
7218;DHT22;3650;53.580;10.094;2022-10-15T08:02:29;15.40;96.60
7218;DHT22;3650;53.580;10.094;2022-10-15T08:04:57;15.40;96.70
7218;DHT22;3650;53.580;10.094;2022-10-15T08:07:24;15.40;96.60
7218;DHT22;3650;53.580;10.094;2022-10-15T08:09:50;15.40;96.70
7218;DHT22;3650;53.580;10.094;2022-10-15T08:12:17;15.40;96.80
7218;DHT22;3650;53.580;10.094;2022-10-15T08:14:45;15.50;96.80
7218;DHT22;3650;53.580;10.094;2022-10-15T08:17:14;15.50;96.60
7218;DHT22;3650;53.580;10.094;2022-10-15T08:19:45;15.50;96.60
7218;DHT22;3650;53.580;10.094;2022-10-15T08:22:14;15.50;96.60
7218;DHT22;3650;53.580;10.094;2022-10-15T08:24:41;15.50;96.60
7218;DHT22;3650;53.580;10.094;2022-10-15T08:27:08;15.50;96.60
7218;DHT22;3650;53.580;10.094;2022-10-15T08:29:34;15.60;96.30
7218;DHT22;3650;53.580;10.094;2022-10-15T08:32:01;15.60;96.10
7218;DHT22;3650;53.580;10.094;2022-10-15T08:34:30;15.60;95.90
7218;DHT22;3650;53.580;10.094;2022-10-15T08:36:57;15.60;95.90
7218;DHT22;3650;53.580;10.094;2022-10-15T08:39:24;15.60;95.80
7218;DHT22;3650;53.580;10.094;2022-10-15T08:41:52;15.60;95.80
7218;DHT22;3650;53.580;10.094;2022-10-15T08:44:22;15.60;96.00
7218;DHT22;3650;53.580;10.094;2022-10-15T08:46:53;15.60;96.10
7218;DHT22;3650;53.580;10.094;2022-10-15T08:49:31;15.60;96.10
7218;DHT22;3650;53.580;10.094;2022-10-15T08:52:06;15.60;96.10
7218;DHT22;3650;53.580;10.094;2022-10-15T08:54:34;15.60;96.00
7218;DHT22;3650;53.580;10.094;2022-10-15T08:57:10;15.60;96.00
7218;DHT22;3650;53.580;10.094;2022-10-15T08:59:48;15.60;96.10
7218;DHT22;3650;53.580;10.094;2022-10-15T09:02:22;15.60;96.10
7218;DHT22;3650;53.580;10.094;2022-10-15T09:04:58;15.60;96.10
7218;DHT22;3650;53.580;10.094;2022-10-15T09:07:34;15.60;95.80
7218;DHT22;3650;53.580;10.094;2022-10-15T09:10:11;15.80;95.90
7218;DHT22;3650;53.580;10.094;2022-10-15T09:12:47;15.60;96.10
7218;DHT22;3650;53.580;10.094;2022-10-15T09:15:17;15.70;96.00
7218;DHT22;3650;53.580;10.094;2022-10-15T09:17:47;15.70;96.00
7218;DHT22;3650;53.580;10.094;2022-10-15T09:20:17;15.70;96.20
7218;DHT22;3650;53.580;10.094;2022-10-15T09:22:49;15.80;96.10
7218;DHT22;3650;53.580;10.094;2022-10-15T09:25:18;15.80;96.00
7218;DHT22;3650;53.580;10.094;2022-10-15T09:27:47;15.80;96.10
7218;DHT22;3650;53.580;10.094;2022-10-15T09:30:32;15.80;96.10
7218;DHT22;3650;53.580;10.094;2022-10-15T09:33:06;15.90;95.80
7218;DHT22;3650;53.580;10.094;2022-10-15T09:35:41;15.90;95.80
7218;DHT22;3650;53.580;10.094;2022-10-15T09:38:24;15.90;95.70
7218;DHT22;3650;53.580;10.094;2022-10-15T09:41:03;15.90;95.60
7218;DHT22;3650;53.580;10.094;2022-10-15T09:43:36;15.90;95.60
7218;DHT22;3650;53.580;10.094;2022-10-15T09:46:05;15.90;95.60
7218;DHT22;3650;53.580;10.094;2022-10-15T09:48:35;16.00;95.60
7218;DHT22;3650;53.580;10.094;2022-10-15T09:51:11;16.00;95.50
7218;DHT22;3650;53.580;10.094;2022-10-15T09:53:50;16.00;95.60
7218;DHT22;3650;53.580;10.094;2022-10-15T09:56:21;16.10;95.80
7218;DHT22;3650;53.580;10.094;2022-10-15T09:58:51;16.10;95.70
7218;DHT22;3650;53.580;10.094;2022-10-15T10:01:20;16.10;95.50
7218;DHT22;3650;53.580;10.094;2022-10-15T10:03:51;16.10;95.20
7218;DHT22;3650;53.580;10.094;2022-10-15T10:06:22;16.10;95.10
7218;DHT22;3650;53.580;10.094;2022-10-15T10:08:51;16.20;94.90
7218;DHT22;3650;53.580;10.094;2022-10-15T10:11:19;16.20;94.90
7218;DHT22;3650;53.580;10.094;2022-10-15T10:13:50;16.20;94.80
7218;DHT22;3650;53.580;10.094;2022-10-15T10:16:19;16.30;94.90
7218;DHT22;3650;53.580;10.094;2022-10-15T10:19:02;16.30;94.90
7218;DHT22;3650;53.580;10.094;2022-10-15T10:21:33;16.30;94.70
7218;DHT22;3650;53.580;10.094;2022-10-15T10:24:19;16.30;94.70
7218;DHT22;3650;53.580;10.094;2022-10-15T10:26:48;16.30;94.70
7218;DHT22;3650;53.580;10.094;2022-10-15T10:29:18;16.30;94.60
7218;DHT22;3650;53.580;10.094;2022-10-15T10:31:46;16.40;94.50
7218;DHT22;3650;53.580;10.094;2022-10-15T10:34:24;16.40;94.70
7218;DHT22;3650;53.580;10.094;2022-10-15T10:36:54;16.40;94.90
7218;DHT22;3650;53.580;10.094;2022-10-15T10:39:24;16.40;95.00
7218;DHT22;3650;53.580;10.094;2022-10-15T10:41:59;16.40;94.90
7218;DHT22;3650;53.580;10.094;2022-10-15T10:44:29;16.50;94.80
7218;DHT22;3650;53.580;10.094;2022-10-15T10:47:11;16.50;94.70
7218;DHT22;3650;53.580;10.094;2022-10-15T10:49:40;16.50;94.80
7218;DHT22;3650;53.580;10.094;2022-10-15T10:52:22;16.60;94.70
7218;DHT22;3650;53.580;10.094;2022-10-15T10:54:54;16.60;94.60
7218;DHT22;3650;53.580;10.094;2022-10-15T10:57:29;16.60;94.00
7218;DHT22;3650;53.580;10.094;2022-10-15T10:59:58;16.70;94.00
7218;DHT22;3650;53.580;10.094;2022-10-15T11:02:25;16.70;94.00
7218;DHT22;3650;53.580;10.094;2022-10-15T11:04:52;16.80;93.50
7218;DHT22;3650;53.580;10.094;2022-10-15T11:07:26;16.80;93.70
7218;DHT22;3650;53.580;10.094;2022-10-15T11:09:59;16.90;93.70
7218;DHT22;3650;53.580;10.094;2022-10-15T11:12:38;16.90;93.10
7218;DHT22;3650;53.580;10.094;2022-10-15T11:15:26;16.90;92.80
7218;DHT22;3650;53.580;10.094;2022-10-15T11:18:00;16.90;92.80
7218;DHT22;3650;53.580;10.094;2022-10-15T11:20:33;16.90;92.80
7218;DHT22;3650;53.580;10.094;2022-10-15T11:23:17;16.90;92.80
7218;DHT22;3650;53.580;10.094;2022-10-15T11:25:54;17.00;92.60
7218;DHT22;3650;53.580;10.094;2022-10-15T11:28:29;17.00;92.50
7218;DHT22;3650;53.580;10.094;2022-10-15T11:31:12;17.10;92.10
7218;DHT22;3650;53.580;10.094;2022-10-15T11:33:55;17.10;92.10
7218;DHT22;3650;53.580;10.094;2022-10-15T11:36:37;17.10;91.20
7218;DHT22;3650;53.580;10.094;2022-10-15T11:39:23;17.20;90.80
7218;DHT22;3650;53.580;10.094;2022-10-15T11:42:01;17.20;91.30
7218;DHT22;3650;53.580;10.094;2022-10-15T11:44:37;17.20;91.00
7218;DHT22;3650;53.580;10.094;2022-10-15T11:47:18;17.30;90.90
7218;DHT22;3650;53.580;10.094;2022-10-15T11:49:57;17.30;90.10
7218;DHT22;3650;53.580;10.094;2022-10-15T11:52:40;17.30;90.60
7218;DHT22;3650;53.580;10.094;2022-10-15T11:55:13;17.40;89.70
7218;DHT22;3650;53.580;10.094;2022-10-15T11:57:44;17.40;86.80
7218;DHT22;3650;53.580;10.094;2022-10-15T12:00:22;17.40;83.60
7218;DHT22;3650;53.580;10.094;2022-10-15T12:02:53;17.40;79.80
7218;DHT22;3650;53.580;10.094;2022-10-15T12:05:27;17.40;82.60
7218;DHT22;3650;53.580;10.094;2022-10-15T12:07:57;17.40;84.50
7218;DHT22;3650;53.580;10.094;2022-10-15T12:10:38;17.40;84.00
7218;DHT22;3650;53.580;10.094;2022-10-15T12:13:13;17.50;82.80
7218;DHT22;3650;53.580;10.094;2022-10-15T12:15:51;17.50;79.90
7218;DHT22;3650;53.580;10.094;2022-10-15T12:18:26;17.50;83.20
7218;DHT22;3650;53.580;10.094;2022-10-15T12:20:57;17.50;83.50
7218;DHT22;3650;53.580;10.094;2022-10-15T12:23:26;17.50;83.40
7218;DHT22;3650;53.580;10.094;2022-10-15T12:26:25;17.60;80.60
7218;DHT22;3650;53.580;10.094;2022-10-15T12:28:55;17.60;82.30
7218;DHT22;3650;53.580;10.094;2022-10-15T12:31:22;17.60;82.90
7218;DHT22;3650;53.580;10.094;2022-10-15T12:33:51;17.60;80.50
7218;DHT22;3650;53.580;10.094;2022-10-15T12:36:23;17.60;81.60
7218;DHT22;3650;53.580;10.094;2022-10-15T12:38:56;17.60;82.30
7218;DHT22;3650;53.580;10.094;2022-10-15T12:41:37;17.70;81.40
7218;DHT22;3650;53.580;10.094;2022-10-15T12:44:14;17.70;81.50
7218;DHT22;3650;53.580;10.094;2022-10-15T12:46:42;17.70;80.10
7218;DHT22;3650;53.580;10.094;2022-10-15T12:49:45;17.80;78.60
7218;DHT22;3650;53.580;10.094;2022-10-15T12:55:23;17.80;81.20
7218;DHT22;3650;53.580;10.094;2022-10-15T12:57:55;17.80;79.80
7218;DHT22;3650;53.580;10.094;2022-10-15T13:00:40;17.90;79.10
7218;DHT22;3650;53.580;10.094;2022-10-15T13:03:35;17.90;78.80
7218;DHT22;3650;53.580;10.094;2022-10-15T13:06:14;17.90;78.60
7218;DHT22;3650;53.580;10.094;2022-10-15T13:08:50;17.90;76.00
7218;DHT22;3650;53.580;10.094;2022-10-15T13:11:20;17.90;76.50
7218;DHT22;3650;53.580;10.094;2022-10-15T13:13:50;17.90;71.80
7218;DHT22;3650;53.580;10.094;2022-10-15T13:16:18;17.90;72.00
7218;DHT22;3650;53.580;10.094;2022-10-15T13:18:48;17.90;71.20
7218;DHT22;3650;53.580;10.094;2022-10-15T13:21:16;17.90;69.40
7218;DHT22;3650;53.580;10.094;2022-10-15T13:23:47;17.90;72.50
7218;DHT22;3650;53.580;10.094;2022-10-15T13:26:18;17.90;70.70
7218;DHT22;3650;53.580;10.094;2022-10-15T13:28:46;17.90;72.00
7218;DHT22;3650;53.580;10.094;2022-10-15T13:31:23;17.90;72.70
7218;DHT22;3650;53.580;10.094;2022-10-15T13:33:52;17.90;71.40
7218;DHT22;3650;53.580;10.094;2022-10-15T13:36:23;17.80;73.80
7218;DHT22;3650;53.580;10.094;2022-10-15T13:38:53;17.90;72.40
7218;DHT22;3650;53.580;10.094;2022-10-15T13:41:25;17.90;71.70
7218;DHT22;3650;53.580;10.094;2022-10-15T13:43:53;17.90;70.10
7218;DHT22;3650;53.580;10.094;2022-10-15T13:46:25;17.90;72.00
7218;DHT22;3650;53.580;10.094;2022-10-15T13:48:58;17.80;72.00
7218;DHT22;3650;53.580;10.094;2022-10-15T13:51:33;17.80;72.00
7218;DHT22;3650;53.580;10.094;2022-10-15T13:54:01;17.90;71.90
7218;DHT22;3650;53.580;10.094;2022-10-15T13:56:33;17.80;72.20
7218;DHT22;3650;53.580;10.094;2022-10-15T13:59:01;17.80;72.50
7218;DHT22;3650;53.580;10.094;2022-10-15T14:01:31;17.90;72.50
7218;DHT22;3650;53.580;10.094;2022-10-15T14:04:00;17.80;73.20
7218;DHT22;3650;53.580;10.094;2022-10-15T14:06:29;17.80;73.50
7218;DHT22;3650;53.580;10.094;2022-10-15T14:08:58;17.90;72.50
7218;DHT22;3650;53.580;10.094;2022-10-15T14:11:27;17.90;73.00
7218;DHT22;3650;53.580;10.094;2022-10-15T14:13:56;17.90;73.40
7218;DHT22;3650;53.580;10.094;2022-10-15T14:16:28;17.90;72.60
7218;DHT22;3650;53.580;10.094;2022-10-15T14:19:06;17.90;73.10
7218;DHT22;3650;53.580;10.094;2022-10-15T14:21:34;17.90;72.90
7218;DHT22;3650;53.580;10.094;2022-10-15T14:24:03;18.00;72.80
7218;DHT22;3650;53.580;10.094;2022-10-15T14:26:32;17.90;72.50
7218;DHT22;3650;53.580;10.094;2022-10-15T14:29:00;18.00;72.70
7218;DHT22;3650;53.580;10.094;2022-10-15T14:31:36;17.90;72.80
7218;DHT22;3650;53.580;10.094;2022-10-15T14:34:04;18.00;73.30
7218;DHT22;3650;53.580;10.094;2022-10-15T14:36:40;18.00;75.10
7218;DHT22;3650;53.580;10.094;2022-10-15T14:39:25;17.90;73.80
7218;DHT22;3650;53.580;10.094;2022-10-15T14:41:57;18.00;74.40
7218;DHT22;3650;53.580;10.094;2022-10-15T14:44:24;17.90;74.80
7218;DHT22;3650;53.580;10.094;2022-10-15T14:47:00;18.00;75.00
7218;DHT22;3650;53.580;10.094;2022-10-15T14:49:30;17.90;75.00
7218;DHT22;3650;53.580;10.094;2022-10-15T14:52:02;18.00;75.30
7218;DHT22;3650;53.580;10.094;2022-10-15T14:54:34;18.00;75.90
7218;DHT22;3650;53.580;10.094;2022-10-15T14:57:02;17.90;75.80
7218;DHT22;3650;53.580;10.094;2022-10-15T14:59:34;18.00;76.20
7218;DHT22;3650;53.580;10.094;2022-10-15T15:02:05;18.00;76.90
7218;DHT22;3650;53.580;10.094;2022-10-15T15:04:39;17.90;77.00
7218;DHT22;3650;53.580;10.094;2022-10-15T15:07:13;17.90;77.00
7218;DHT22;3650;53.580;10.094;2022-10-15T15:09:41;18.00;77.00
7218;DHT22;3650;53.580;10.094;2022-10-15T15:12:14;17.90;77.00
7218;DHT22;3650;53.580;10.094;2022-10-15T15:14:43;18.00;77.10
7218;DHT22;3650;53.580;10.094;2022-10-15T15:17:16;18.00;76.40
7218;DHT22;3650;53.580;10.094;2022-10-15T15:19:42;17.90;76.50
7218;DHT22;3650;53.580;10.094;2022-10-15T15:22:11;17.90;76.80
7218;DHT22;3650;53.580;10.094;2022-10-15T15:24:40;17.90;77.10
7218;DHT22;3650;53.580;10.094;2022-10-15T15:27:11;17.90;77.40
7218;DHT22;3650;53.580;10.094;2022-10-15T15:29:43;17.90;77.70
7218;DHT22;3650;53.580;10.094;2022-10-15T15:32:10;17.90;77.90
7218;DHT22;3650;53.580;10.094;2022-10-15T15:34:38;17.90;78.00
7218;DHT22;3650;53.580;10.094;2022-10-15T15:37:11;17.90;78.20
7218;DHT22;3650;53.580;10.094;2022-10-15T15:39:39;17.90;78.40
7218;DHT22;3650;53.580;10.094;2022-10-15T15:42:05;17.90;79.40
7218;DHT22;3650;53.580;10.094;2022-10-15T15:44:32;17.90;80.70
7218;DHT22;3650;53.580;10.094;2022-10-15T15:46:59;17.90;83.00
7218;DHT22;3650;53.580;10.094;2022-10-15T15:49:26;17.90;84.50
7218;DHT22;3650;53.580;10.094;2022-10-15T15:51:54;17.90;85.50
7218;DHT22;3650;53.580;10.094;2022-10-15T15:54:21;17.90;86.80
7218;DHT22;3650;53.580;10.094;2022-10-15T15:56:47;17.90;89.30
7218;DHT22;3650;53.580;10.094;2022-10-15T15:59:14;17.90;88.20
7218;DHT22;3650;53.580;10.094;2022-10-15T16:01:43;17.90;89.20
7218;DHT22;3650;53.580;10.094;2022-10-15T16:04:10;17.90;90.10
7218;DHT22;3650;53.580;10.094;2022-10-15T16:06:37;17.80;90.30
7218;DHT22;3650;53.580;10.094;2022-10-15T16:09:05;17.90;90.80
7218;DHT22;3650;53.580;10.094;2022-10-15T16:11:33;17.80;91.10